This is the latest recevied weather packets stored in our database for station/object KE0TNI-13. If no packets are shown the sender has not sent any weather packets the latest 10 day(s).
| Time | Temp. | Humidity | Pressure | Rain* | Wind** | Luminosity | Snow |
|---|---|---|---|---|---|---|---|
| 1777339726 | 1.67° C | 92% | 1015.8 hPa | 0 mm | - | 4 W/m² | - |
| 1777339423 | 1.67° C | 92% | 1015.6 hPa | 0 mm | - | 6 W/m² | - |
| 1777339121 | 1.67° C | 92% | 1015.8 hPa | 0 mm | - | 15 W/m² | - |
| 1777338818 | 1.67° C | 92% | 1015.8 hPa | 0.51 mm | - | 43 W/m² | - |
| 1777338515 | 1.67° C | 92% | 1015.7 hPa | 0.51 mm | - | 47 W/m² | - |
| 1777338213 | 1.67° C | 92% | 1015.8 hPa | 0 mm | - | 22 W/m² | - |
| 1777337908 | 1.67° C | 92% | 1015.6 hPa | 0 mm | - | 20 W/m² | - |
| 1777337606 | 1.67° C | 92% | 1015.7 hPa | 0 mm | - | 18 W/m² | - |
| 1777337303 | 1.67° C | 92% | 1015.7 hPa | 0 mm | - | 12 W/m² | - |
| 1777336699 | 1.67° C | 92% | 1015.7 hPa | 0.51 mm | - | 12 W/m² | - |
| 1777336397 | 1.67° C | 92% | 1015.8 hPa | 0.51 mm | - | 17 W/m² | - |
| 1777312780 | 2.78° C | 82% | 1014.4 hPa | 0 mm | - | 109 W/m² | - |
| 1777312477 | 2.78° C | 83% | 1014.5 hPa | 0 mm | - | 149 W/m² | - |
| 1777311569 | 2.78° C | 82% | 1014.3 hPa | 0 mm | - | 719 W/m² | - |
| 1777311266 | 2.22° C | 84% | 1014.4 hPa | 0 mm | - | 667 W/m² | - |
| 1777310964 | 2.78° C | 84% | 1014.3 hPa | 0 mm | - | 81 W/m² | - |
| 1777310358 | 2.22° C | 85% | 1014.1 hPa | 0 mm | - | 215 W/m² | - |
| 1777310055 | 2.22° C | 83% | 1014.3 hPa | 0 mm | - | 147 W/m² | - |
| 1777309148 | 2.22° C | 86% | 1014 hPa | 0 mm | - | 124 W/m² | - |
| 1777308846 | 2.22° C | 85% | 1014.3 hPa | 0 mm | - | 193 W/m² | - |
| 1777308541 | 2.22° C | 83% | 1014.3 hPa | 0 mm | - | 108 W/m² | - |
| 1777307327 | 3.33° C | 77% | 1014 hPa | 0 mm | - | 213 W/m² | - |
| 1777305505 | 2.22° C | 81% | 1013.9 hPa | 0 mm | - | 116 W/m² | - |
| 1777304289 | 2.78° C | 78% | 1013.5 hPa | 0 mm | - | 193 W/m² | - |
| 1777303987 | 2.78° C | 77% | 1013.7 hPa | 0 mm | - | 155 W/m² | - |
* Rain latest hour (hover to see other rain measurements)
** Current wind speed in m/s (hover to see current wind gust speed)